Time;durP1;ratioP1;P1;durP2;ratioP2;P2;SDS_P1;SDS_P2;PMS_P1;PMS_P2;Temp;Humidity;BMP_temperature;BMP_pressure;BME280_temperature;BME280_humidity;BME280_pressure;Samples;Min_cycle;Max_cycle;Signal;HPM_P1;HPM_P2
2022/09/27 00:01:46;;;;;;;16.00;6.15;;;10.70;93.60;;;;;;5014666;28;20177;-59
2022/09/27 00:04:13;;;;;;;10.68;5.70;;;10.70;93.60;;;;;;5029643;28;20041;-60
2022/09/27 00:06:40;;;;;;;10.55;4.45;;;10.70;93.70;;;;;;5031897;28;20090;-60
2022/09/27 00:09:07;;;;;;;11.68;4.22;;;10.80;93.80;;;;;;5013453;28;20025;-60
2022/09/27 00:11:41;;;;;;;7.13;3.00;;;10.70;93.70;;;;;;5032102;28;20288;-60
2022/09/27 00:14:11;;;;;;;4.38;1.23;;;10.70;93.70;;;;;;5031883;28;20037;-60
2022/09/27 00:16:39;;;;;;;;;;;10.60;93.60;;;;;;5032230;28;20096;-60
2022/09/27 00:19:14;;;;;;;2.95;1.00;;;10.50;93.70;;;;;;5030740;28;19913;-64
2022/09/27 00:21:42;;;;;;;3.95;0.70;;;10.50;93.70;;;;;;5031731;28;20457;-66
2022/09/27 00:24:18;;;;;;;2.35;0.60;;;10.50;93.70;;;;;;5031657;28;20496;-65
2022/09/27 00:26:46;;;;;;;3.72;1.17;;;10.50;93.70;;;;;;5031575;28;20029;-66
2022/09/27 00:29:18;;;;;;;4.20;1.33;;;10.60;93.70;;;;;;5013120;28;20037;-65
2022/09/27 00:31:46;;;;;;;9.32;2.28;;;10.60;93.70;;;;;;5032232;28;20030;-64
2022/09/27 00:34:19;;;;;;;8.32;2.72;;;10.60;93.70;;;;;;5029227;28;20458;-63
2022/09/27 00:36:49;;;;;;;4.75;1.83;;;10.70;93.70;;;;;;5031879;28;20034;-63
2022/09/27 00:39:16;;;;;;;6.63;2.05;;;10.70;93.80;;;;;;5012586;28;20027;-62
2022/09/27 00:41:43;;;;;;;5.32;1.95;;;10.70;93.80;;;;;;5029355;28;20037;-61
2022/09/27 00:44:27;;;;;;;4.47;1.60;;;10.70;93.70;;;;;;5030501;28;20639;-59
2022/09/27 00:47:09;;;;;;;8.57;1.92;;;10.80;93.80;;;;;;5011818;28;20187;-59
2022/09/27 00:49:53;;;;;;;5.65;1.30;;;10.80;93.80;;;;;;5024633;28;20168;-59
2022/09/27 00:52:27;;;;;;;6.88;1.30;;;10.70;93.70;;;;;;5031156;28;20427;-60
2022/09/27 00:55:01;;;;;;;7.22;1.50;;;10.80;93.80;;;;;;5007646;28;20029;-61
2022/09/27 00:57:28;;;;;;;4.40;1.10;;;10.80;93.80;;;;;;5013872;28;20060;-61
2022/09/27 01:00:12;;;;;;;5.13;1.20;;;10.80;93.80;;;;;;5029868;28;20041;-61
2022/09/27 01:03:00;;;;;;;5.22;1.85;;;10.90;93.80;;;;;;5030755;28;20397;-61
2022/09/27 01:05:30;;;;;;;3.17;1.05;;;10.90;93.80;;;;;;5030524;28;20033;-61
2022/09/27 01:07:59;;;;;;;10.13;1.23;;;10.90;93.70;;;;;;5030860;28;20076;-61
2022/09/27 01:10:37;;;;;;;5.57;1.80;;;10.90;93.80;;;;;;5029519;28;20018;-61
2022/09/27 01:13:11;;;;;;;3.35;1.00;;;10.90;93.70;;;;;;5031001;28;20052;-61
2022/09/27 01:16:00;;;;;;;6.47;1.48;;;10.90;93.80;;;;;;5030898;28;20393;-60
2022/09/27 01:18:53;;;;;;;2.63;0.73;;;10.90;93.80;;;;;;5029850;28;20032;-59
2022/09/27 01:21:42;;;;;;;3.53;0.77;;;10.90;93.80;;;;;;5010825;28;20038;-59
2022/09/27 01:24:40;;;;;;;3.78;1.15;;;10.90;93.80;;;;;;5005565;28;20457;-60
2022/09/27 01:27:31;;;;;;;4.53;1.00;;;10.90;93.70;;;;;;4988074;28;20098;-60
2022/09/27 01:30:34;;;;;;;4.00;1.00;;;10.90;93.70;;;;;;4993372;28;20050;-60
2022/09/27 01:33:09;;;;;;;2.38;0.80;;;10.90;93.70;;;;;;5010761;28;20069;-59
2022/09/27 01:35:56;;;;;;;4.00;0.98;;;10.90;93.70;;;;;;5027266;28;20097;-58
2022/09/27 01:39:05;;;;;;;2.97;0.80;;;10.90;93.70;;;;;;5030298;28;20032;-56
2022/09/27 01:41:52;;;;;;;4.35;2.05;;;10.90;93.80;;;;;;4992049;28;20077;-58
2022/09/27 01:44:31;;;;;;;2.67;0.80;;;10.90;93.70;;;;;;5030139;28;20068;-58
2022/09/27 01:47:02;;;;;;;;;;;10.90;93.70;;;;;;5030550;28;20481;-57
2022/09/27 01:49:44;;;;;;;5.25;1.33;;;10.90;93.70;;;;;;5027860;28;20097;-58
2022/09/27 01:52:17;;;;;;;5.70;0.90;;;10.90;93.60;;;;;;5027904;28;20087;-57
2022/09/27 01:54:46;;;;;;;6.35;1.10;;;10.90;93.70;;;;;;5026883;28;20022;-57
2022/09/27 01:57:17;;;;;;;;;;;10.90;93.60;;;;;;5030622;28;20053;-56
2022/09/27 01:59:53;;;;;;;2.15;0.50;;;10.90;93.60;;;;;;5008147;28;19910;-55
2022/09/27 02:02:24;;;;;;;3.58;0.70;;;10.90;93.60;;;;;;5009709;28;20026;-55
2022/09/27 02:04:56;;;;;;;11.00;1.00;;;10.90;93.60;;;;;;4990779;28;20378;-57
2022/09/27 02:07:31;;;;;;;5.05;1.15;;;10.80;93.60;;;;;;5029615;28;20140;-56
2022/09/27 02:10:26;;;;;;;7.00;0.70;;;10.80;93.60;;;;;;5029482;28;20083;-55
2022/09/27 02:13:02;;;;;;;4.22;0.60;;;10.80;93.50;;;;;;5006241;28;20120;-56
2022/09/27 02:15:40;;;;;;;4.82;1.05;;;10.70;93.50;;;;;;5011845;28;20451;-55
2022/09/27 02:18:21;;;;;;;1.70;0.50;;;10.70;93.50;;;;;;4995700;28;20067;-54
2022/09/27 02:20:56;;;;;;;3.60;0.50;;;10.70;93.50;;;;;;5027024;28;20029;-55
2022/09/27 02:23:50;;;;;;;5.05;0.80;;;10.70;93.50;;;;;;5029109;28;20021;-59
2022/09/27 02:26:21;;;;;;;5.82;1.23;;;10.70;93.50;;;;;;5029486;28;20036;-61
2022/09/27 02:29:25;;;;;;;10.18;1.00;;;10.60;93.50;;;;;;5029254;28;20037;-57
2022/09/27 02:31:52;;;;;;;4.88;1.20;;;10.70;93.60;;;;;;4984823;28;20044;-64
2022/09/27 02:34:25;;;;;;;6.93;1.25;;;10.70;93.60;;;;;;5009711;28;20034;-64
2022/09/27 02:36:52;;;;;;;4.68;1.00;;;10.60;93.60;;;;;;5027513;28;20112;-59
2022/09/27 02:39:19;;;;;;;4.53;1.30;;;10.70;93.70;;;;;;5029400;28;20021;-60
2022/09/27 02:41:46;;;;;;;6.07;0.95;;;10.60;93.60;;;;;;5028578;28;20335;-60
2022/09/27 02:44:17;;;;;;;2.72;0.93;;;10.70;93.70;;;;;;5028631;28;20017;-63
2022/09/27 02:47:18;;;;;;;5.40;1.15;;;10.70;93.70;;;;;;5011389;28;20144;-64
2022/09/27 02:50:15;;;;;;;6.50;1.35;;;10.70;93.70;;;;;;5010818;28;20347;-59
2022/09/27 02:53:08;;;;;;;5.40;1.27;;;10.70;93.60;;;;;;5009265;28;20046;-57
2022/09/27 02:55:45;;;;;;;2.95;0.80;;;10.70;93.60;;;;;;5009265;28;20022;-57
2022/09/27 02:58:22;;;;;;;6.38;1.35;;;10.70;93.60;;;;;;5009464;28;20030;-54
2022/09/27 03:01:04;;;;;;;3.22;0.80;;;10.70;93.70;;;;;;5017345;28;20025;-54
2022/09/27 03:04:01;;;;;;;2.65;0.93;;;10.70;93.50;;;;;;5029056;28;20034;-56
2022/09/27 03:06:29;;;;;;;4.13;0.90;;;10.60;93.50;;;;;;4998411;28;20045;-53
2022/09/27 03:08:59;;;;;;;2.17;0.75;;;10.60;93.50;;;;;;5028927;28;20358;-50
2022/09/27 03:11:25;;;;;;;6.95;1.00;;;10.60;93.40;;;;;;5011929;28;20053;-52
2022/09/27 03:13:52;;;;;;;5.60;1.35;;;10.50;93.40;;;;;;5028221;28;20030;-54
2022/09/27 03:16:19;;;;;;;5.38;1.23;;;10.50;93.40;;;;;;5009848;28;20171;-54
2022/09/27 03:18:45;;;;;;;5.07;1.38;;;10.50;93.40;;;;;;5028983;28;20034;-57
2022/09/27 03:21:12;;;;;;;6.43;2.28;;;10.40;93.40;;;;;;5026302;28;20026;-62
2022/09/27 03:23:39;;;;;;;4.07;0.80;;;10.40;93.40;;;;;;5011857;28;20048;-66
2022/09/27 03:26:05;;;;;;;3.30;0.77;;;10.30;93.30;;;;;;5033069;28;20168;-66
2022/09/27 03:28:31;;;;;;;6.60;0.98;;;10.20;93.40;;;;;;5032949;28;20517;-65
2022/09/27 03:30:57;;;;;;;2.80;0.68;;;10.20;93.50;;;;;;5012830;28;20025;-65
2022/09/27 03:33:24;;;;;;;6.30;1.17;;;10.20;93.60;;;;;;5032573;28;20339;-65
2022/09/27 03:35:51;;;;;;;4.68;0.82;;;10.10;93.60;;;;;;5012793;28;20030;-64
2022/09/27 03:38:20;;;;;;;7.97;1.05;;;10.20;93.70;;;;;;5032697;28;20025;-64
2022/09/27 03:40:49;;;;;;;3.90;0.93;;;10.20;93.70;;;;;;5032606;28;20025;-64
2022/09/27 03:43:15;;;;;;;3.72;0.93;;;10.20;93.70;;;;;;5032013;28;20455;-65
2022/09/27 03:45:44;;;;;;;4.53;1.00;;;10.20;93.80;;;;;;5015009;28;20040;-65
2022/09/27 03:48:11;;;;;;;6.20;1.30;;;10.20;93.80;;;;;;5032023;28;20049;-65
2022/09/27 03:50:38;;;;;;;6.20;0.88;;;10.20;93.80;;;;;;5030346;28;20435;-66
2022/09/27 03:53:05;;;;;;;4.60;0.93;;;10.20;93.80;;;;;;5029227;28;20029;-65
2022/09/27 03:55:35;;;;;;;5.13;0.90;;;10.30;93.80;;;;;;5012499;28;20501;-65
2022/09/27 03:58:02;;;;;;;6.05;1.23;;;10.30;93.80;;;;;;5022295;28;20123;-65
2022/09/27 04:00:31;;;;;;;6.97;1.40;;;10.30;93.90;;;;;;5022605;28;20482;-65
2022/09/27 04:02:59;;;;;;;4.85;1.00;;;10.30;93.90;;;;;;5023067;28;20423;-64
2022/09/27 04:05:27;;;;;;;7.25;1.45;;;10.30;93.90;;;;;;5004141;28;20116;-64
2022/09/27 04:07:53;;;;;;;4.35;1.45;;;10.30;93.90;;;;;;5008951;28;20044;-64
2022/09/27 04:10:20;;;;;;;3.92;1.00;;;10.30;93.90;;;;;;5021554;28;20029;-65
2022/09/27 04:12:47;;;;;;;3.15;0.90;;;10.30;93.80;;;;;;5023568;28;20385;-65
2022/09/27 04:15:14;;;;;;;3.47;0.95;;;10.30;93.90;;;;;;5023694;28;20026;-65
2022/09/27 04:17:41;;;;;;;8.07;1.25;;;10.20;93.90;;;;;;5014402;28;20061;-65
2022/09/27 04:20:11;;;;;;;3.00;0.90;;;10.20;93.80;;;;;;5014324;28;20044;-64
2022/09/27 04:22:43;;;;;;;3.50;1.27;;;10.20;93.90;;;;;;5031053;28;20433;-65
2022/09/27 04:25:09;;;;;;;4.63;1.15;;;10.10;93.80;;;;;;5031716;28;20099;-65
2022/09/27 04:27:39;;;;;;;3.92;1.23;;;10.10;93.80;;;;;;5030943;28;20043;-64
2022/09/27 04:30:06;;;;;;;5.53;1.20;;;10.10;93.80;;;;;;5031346;28;20056;-65
2022/09/27 04:32:43;;;;;;;3.70;1.10;;;10.20;93.90;;;;;;5009840;28;20430;-65
2022/09/27 04:37:57;;;;;;;7.15;1.60;;;10.20;93.90;;;;;;5015163;28;20072;-63
2022/09/27 04:40:23;;;;;;;3.47;1.08;;;10.20;94.00;;;;;;4987686;28;20033;-64
2022/09/27 04:42:51;;;;;;;3.67;1.30;;;10.20;94.00;;;;;;5003710;28;20032;-64
2022/09/27 04:45:18;;;;;;;2.83;0.90;;;10.20;93.90;;;;;;5024736;28;20446;-64
2022/09/27 04:47:46;;;;;;;6.28;1.50;;;10.20;93.90;;;;;;5020029;28;20096;-64
2022/09/27 04:50:12;;;;;;;2.50;1.00;;;10.20;93.90;;;;;;5002565;28;20045;-64
2022/09/27 04:52:42;;;;;;;4.32;1.17;;;10.20;93.90;;;;;;5006578;28;20362;-65
2022/09/27 04:55:10;;;;;;;5.80;1.08;;;10.20;93.80;;;;;;5031367;28;20060;-65
2022/09/27 04:57:37;;;;;;;3.30;1.48;;;10.20;93.80;;;;;;5030967;28;20097;-64
2022/09/27 05:00:05;;;;;;;7.10;1.10;;;10.20;93.80;;;;;;5031153;28;20033;-64
2022/09/27 05:02:31;;;;;;;5.20;1.20;;;10.20;93.90;;;;;;5028045;28;20037;-63
2022/09/27 05:04:59;;;;;;;3.63;1.00;;;10.20;93.90;;;;;;5031118;28;20107;-64
2022/09/27 05:07:27;;;;;;;4.20;1.17;;;10.20;93.90;;;;;;5030316;28;20030;-62
2022/09/27 05:09:53;;;;;;;4.88;1.23;;;10.30;93.80;;;;;;5011057;28;20824;-62
2022/09/27 05:12:20;;;;;;;4.00;1.38;;;10.20;93.80;;;;;;5011298;28;20076;-63
2022/09/27 05:14:47;;;;;;;3.58;1.23;;;10.30;93.80;;;;;;5020896;28;20042;-65
2022/09/27 05:17:17;;;;;;;5.72;1.45;;;10.20;93.80;;;;;;5013159;28;20450;-64
2022/09/27 05:19:49;;;;;;;2.70;1.45;;;10.20;93.80;;;;;;5030624;28;20026;-63
2022/09/27 05:22:16;;;;;;;4.13;1.52;;;10.20;93.80;;;;;;5029997;28;20033;-50
2022/09/27 05:24:43;;;;;;;7.20;1.63;;;10.30;93.90;;;;;;5012965;28;20052;-61
2022/09/27 05:27:19;;;;;;;5.32;1.88;;;10.30;93.90;;;;;;5026758;28;20519;-64
2022/09/27 05:29:46;;;;;;;3.20;1.52;;;10.30;93.90;;;;;;5027673;28;20029;-64
2022/09/27 05:32:14;;;;;;;4.40;1.35;;;10.30;93.90;;;;;;5029201;28;20478;-64
2022/09/27 05:34:40;;;;;;;3.55;2.03;;;10.30;93.90;;;;;;5011233;28;20033;-64
2022/09/27 05:37:08;;;;;;;1.98;0.90;;;10.30;93.80;;;;;;5029085;28;20032;-64
2022/09/27 05:39:34;;;;;;;5.43;1.48;;;10.20;93.80;;;;;;5025694;28;20048;-65
2022/09/27 05:42:03;;;;;;;3.08;1.00;;;10.10;93.80;;;;;;5024425;28;20034;-64
2022/09/27 05:44:30;;;;;;;4.72;1.38;;;10.10;93.80;;;;;;5027222;28;20044;-64
2022/09/27 05:46:56;;;;;;;5.20;1.10;;;10.10;93.80;;;;;;5029078;28;20045;-53
2022/09/27 05:49:23;;;;;;;2.55;1.10;;;10.10;93.80;;;;;;5029286;28;20052;-60
2022/09/27 05:51:50;;;;;;;5.22;1.33;;;10.00;93.80;;;;;;5029066;28;20359;-64
2022/09/27 05:54:18;;;;;;;4.82;1.40;;;10.00;93.80;;;;;;5027931;28;20435;-65
2022/09/27 05:56:45;;;;;;;4.10;1.30;;;10.10;93.90;;;;;;5028661;28;20108;-63
2022/09/27 05:59:11;;;;;;;4.07;1.48;;;10.10;94.00;;;;;;5013114;28;20025;-59
2022/09/27 06:01:37;;;;;;;3.60;1.30;;;10.10;94.00;;;;;;5049277;28;20056;-64
2022/09/27 06:04:05;;;;;;;1.58;0.80;;;10.20;94.00;;;;;;5028497;28;20026;-62
2022/09/27 06:06:35;;;;;;;3.17;0.93;;;10.10;94.00;;;;;;5017295;28;20021;-63
2022/09/27 06:09:05;;;;;;;3.25;0.90;;;10.20;94.00;;;;;;5037072;28;20366;-60
2022/09/27 06:11:32;;;;;;;5.05;1.23;;;10.20;93.90;;;;;;5011493;28;20525;-59
2022/09/27 06:13:59;;;;;;;1.88;0.88;;;10.20;94.00;;;;;;5029350;28;20025;-64
2022/09/27 06:16:28;;;;;;;4.57;1.42;;;10.30;94.00;;;;;;5011941;28;20025;-59
2022/09/27 06:18:56;;;;;;;;;;;10.30;94.00;;;;;;5029181;28;20036;-58
2022/09/27 06:21:27;;;;;;;3.97;1.38;;;10.30;93.90;;;;;;5012063;28;19924;-60
2022/09/27 06:23:55;;;;;;;2.67;0.88;;;10.30;93.90;;;;;;5026113;28;20048;-61
2022/09/27 06:26:25;;;;;;;4.07;1.17;;;10.20;93.90;;;;;;5008799;28;20033;-61
2022/09/27 06:28:53;;;;;;;3.60;1.23;;;10.30;93.90;;;;;;5028880;28;20025;-61
2022/09/27 06:31:20;;;;;;;3.20;1.40;;;10.30;93.90;;;;;;5024748;28;20608;-61
2022/09/27 06:33:48;;;;;;;3.78;1.50;;;10.30;93.90;;;;;;5026533;28;20045;-58
2022/09/27 06:36:18;;;;;;;5.05;1.35;;;10.30;93.90;;;;;;5009723;28;20485;-54
2022/09/27 06:38:47;;;;;;;3.83;1.45;;;10.40;93.90;;;;;;4989941;28;20466;-56
2022/09/27 06:41:14;;;;;;;4.38;1.67;;;10.40;93.80;;;;;;4992571;28;20030;-60
2022/09/27 06:43:44;;;;;;;5.90;1.98;;;10.30;93.80;;;;;;5007279;28;20307;-64
2022/09/27 06:46:11;;;;;;;5.68;1.90;;;10.30;93.80;;;;;;5026849;28;20493;-65
2022/09/27 06:48:38;;;;;;;4.40;1.30;;;10.40;93.80;;;;;;5024864;28;20054;-65
2022/09/27 06:51:05;;;;;;;4.38;1.52;;;10.40;93.80;;;;;;5023026;28;20110;-64
2022/09/27 06:53:31;;;;;;;6.78;1.98;;;10.40;93.80;;;;;;5009658;28;20029;-59
2022/09/27 06:55:59;;;;;;;6.50;2.17;;;10.40;93.70;;;;;;5010979;28;20014;-56
2022/09/27 07:01:12;;;;;;;4.05;2.10;;;10.40;93.70;;;;;;5026593;28;20092;-52
2022/09/27 07:03:42;;;;;;;7.03;1.83;;;10.40;93.70;;;;;;5027939;28;20018;-66
2022/09/27 07:06:18;;;;;;;6.18;1.15;;;10.40;93.60;;;;;;5007781;28;20469;-64
2022/09/27 07:08:52;;;;;;;4.10;0.98;;;10.40;93.60;;;;;;5024644;28;20110;-65
2022/09/27 07:11:18;;;;;;;3.50;0.90;;;10.40;93.70;;;;;;5027915;28;20123;-65
2022/09/27 07:13:45;;;;;;;2.40;1.02;;;10.40;93.80;;;;;;5031453;28;20064;-64
2022/09/27 07:16:13;;;;;;;5.05;2.67;;;10.50;94.00;;;;;;5030026;28;20017;-64
2022/09/27 07:18:40;;;;;;;3.40;1.00;;;10.50;93.70;;;;;;5027047;28;20032;-63
2022/09/27 07:21:08;;;;;;;5.65;1.58;;;10.60;93.90;;;;;;5025400;28;20025;-59
2022/09/27 07:23:35;;;;;;;5.43;1.67;;;10.60;93.80;;;;;;5025234;28;20100;-64
2022/09/27 07:26:03;;;;;;;4.90;1.30;;;10.60;93.90;;;;;;5028251;28;20053;-64
2022/09/27 07:28:30;;;;;;;5.88;2.03;;;10.80;94.00;;;;;;5028554;28;20568;-56
2022/09/27 07:30:59;;;;;;;4.15;1.75;;;10.80;93.90;;;;;;5028036;28;20053;-56
2022/09/27 07:33:27;;;;;;;4.97;1.90;;;10.90;94.10;;;;;;5028579;28;20026;-52
2022/09/27 07:35:53;;;;;;;6.65;2.08;;;10.90;93.80;;;;;;5028722;28;20027;-49
2022/09/27 07:38:20;;;;;;;6.43;1.38;;;11.00;93.80;;;;;;5022608;28;20060;-51
2022/09/27 07:40:47;;;;;;;4.35;1.15;;;11.00;93.80;;;;;;5027378;28;20052;-52
2022/09/27 07:43:14;;;;;;;4.35;0.85;;;11.10;93.80;;;;;;5027068;28;20018;-57
2022/09/27 07:45:40;;;;;;;7.15;1.23;;;11.10;93.60;;;;;;5001345;28;20026;-53
2022/09/27 07:48:10;;;;;;;4.65;1.10;;;11.20;93.40;;;;;;4985326;28;20512;-56
2022/09/27 07:50:39;;;;;;;3.67;1.52;;;11.20;93.30;;;;;;5023773;28;20038;-54
2022/09/27 07:53:05;;;;;;;3.47;1.43;;;11.20;93.30;;;;;;5000456;28;20034;-53
2022/09/27 07:55:32;;;;;;;8.15;1.90;;;11.20;93.20;;;;;;5012375;28;20268;-53
2022/09/27 07:58:10;;;;;;;5.78;2.25;;;11.20;93.10;;;;;;5013747;28;20103;-49
2022/09/27 08:00:38;;;;;;;7.53;2.17;;;11.20;93.00;;;;;;5024760;28;20029;-63
2022/09/27 08:03:13;;;;;;;7.07;1.55;;;11.20;93.00;;;;;;5010099;28;20021;-64
2022/09/27 08:05:44;;;;;;;1.58;0.80;;;11.10;92.90;;;;;;5023142;28;20025;-64
2022/09/27 08:08:12;;;;;;;3.65;1.00;;;11.00;92.80;;;;;;5000531;28;20459;-65
2022/09/27 08:10:46;;;;;;;7.10;1.55;;;11.00;92.90;;;;;;5021898;28;20387;-61
2022/09/27 08:13:13;;;;;;;4.05;0.82;;;10.90;92.90;;;;;;5026368;28;20036;-61
2022/09/27 08:15:40;;;;;;;6.93;1.75;;;10.90;92.90;;;;;;5022469;28;20025;-66
2022/09/27 08:18:08;;;;;;;6.75;2.53;;;10.80;92.90;;;;;;5024740;28;20103;-64
2022/09/27 08:20:35;;;;;;;7.18;1.33;;;10.70;93.00;;;;;;5030541;28;20059;-65
2022/09/27 08:23:03;;;;;;;3.97;0.80;;;10.70;93.20;;;;;;5030979;28;20038;-64
2022/09/27 08:25:33;;;;;;;5.13;1.05;;;10.60;93.00;;;;;;5029707;28;20343;-63
2022/09/27 08:28:00;;;;;;;3.78;0.60;;;10.50;92.80;;;;;;5031905;28;20035;-63
2022/09/27 08:30:30;;;;;;;5.78;1.02;;;10.40;92.90;;;;;;5012817;28;20025;-65
2022/09/27 08:33:00;;;;;;;2.88;0.80;;;10.30;92.90;;;;;;5031411;28;20115;-62
2022/09/27 08:35:27;;;;;;;4.50;0.80;;;10.40;93.00;;;;;;5031564;28;20175;-58
2022/09/27 08:37:56;;;;;;;6.13;1.23;;;10.40;93.10;;;;;;5030495;28;20045;-62
2022/09/27 08:40:28;;;;;;;6.45;1.20;;;10.50;93.10;;;;;;5029227;28;20034;-58
2022/09/27 08:43:11;;;;;;;4.07;0.93;;;10.40;93.00;;;;;;5031308;28;20041;-63
2022/09/27 08:45:54;;;;;;;9.07;1.30;;;10.50;93.00;;;;;;5012536;28;20437;-56
2022/09/27 08:48:25;;;;;;;2.35;0.88;;;10.40;93.10;;;;;;5030503;28;20053;-63
2022/09/27 08:50:56;;;;;;;6.13;0.93;;;10.40;93.20;;;;;;5029440;28;20175;-62
2022/09/27 08:53:53;;;;;;;4.57;1.13;;;10.50;93.30;;;;;;5030280;28;20412;-59
2022/09/27 08:56:21;;;;;;;3.45;0.90;;;10.50;93.30;;;;;;5030087;28;20037;-60
2022/09/27 08:58:56;;;;;;;5.75;1.25;;;10.50;93.40;;;;;;5029776;28;20029;-63
2022/09/27 09:01:24;;;;;;;3.85;0.80;;;10.50;93.40;;;;;;5028162;28;20061;-64
2022/09/27 09:03:54;;;;;;;12.38;1.50;;;10.50;93.30;;;;;;5018719;28;20147;-63
2022/09/27 09:06:40;;;;;;;5.40;1.55;;;10.50;93.30;;;;;;5012483;28;20036;-63
2022/09/27 09:09:27;;;;;;;5.93;1.40;;;10.50;93.30;;;;;;5028342;28;20401;-64
2022/09/27 09:12:50;;;;;;;5.07;1.02;;;10.50;93.30;;;;;;5028758;28;20037;-63
2022/09/27 09:15:53;;;;;;;4.93;0.80;;;10.60;93.40;;;;;;5012675;28;20026;-57
2022/09/27 09:18:55;;;;;;;3.22;0.70;;;10.70;93.50;;;;;;5030907;28;20033;-50
2022/09/27 09:21:33;;;;;;;3.55;0.80;;;10.90;93.50;;;;;;5029323;28;20035;-51
2022/09/27 09:24:29;;;;;;;2.47;0.63;;;11.00;93.40;;;;;;5030762;28;20037;-53
2022/09/27 09:26:58;;;;;;;4.43;0.85;;;11.20;93.40;;;;;;5029752;28;20093;-51
2022/09/27 09:30:04;;;;;;;2.70;0.82;;;11.30;93.40;;;;;;5030322;28;20040;-50
2022/09/27 09:33:00;;;;;;;3.53;1.20;;;11.40;93.30;;;;;;5029418;28;20258;-54
2022/09/27 09:35:54;;;;;;;7.60;1.25;;;11.30;93.00;;;;;;5030062;28;20025;-52
2022/09/27 09:38:37;;;;;;;2.97;0.90;;;11.00;92.40;;;;;;5029997;28;20053;-60
2022/09/27 09:41:05;;;;;;;0.50;0.40;;;10.90;92.10;;;;;;5028395;28;20033;-64
2022/09/27 09:44:01;;;;;;;2.97;0.57;;;10.40;90.50;;;;;;5030358;28;20091;-63
2022/09/27 09:46:48;;;;;;;1.58;0.70;;;10.10;90.10;;;;;;5030326;28;20033;-61
2022/09/27 09:49:20;;;;;;;5.72;0.60;;;10.00;90.60;;;;;;5029857;28;20350;-62
2022/09/27 09:51:51;;;;;;;4.53;1.00;;;10.10;91.10;;;;;;5011307;28;20029;-58
2022/09/27 09:54:49;;;;;;;3.90;1.38;;;10.30;91.60;;;;;;5012588;28;20533;-56
2022/09/27 09:57:46;;;;;;;2.53;0.50;;;10.40;91.90;;;;;;5027568;28;20517;-56
2022/09/27 10:00:31;;;;;;;2.42;1.05;;;10.50;91.80;;;;;;5015304;28;20045;-54
2022/09/27 10:02:59;;;;;;;4.72;0.73;;;10.70;92.00;;;;;;5028881;28;20171;-57
2022/09/27 10:05:27;;;;;;;4.97;1.00;;;10.80;91.90;;;;;;5030148;28;20021;-55
2022/09/27 10:07:58;;;;;;;4.13;0.73;;;10.90;91.90;;;;;;5029601;28;20079;-53
2022/09/27 10:10:25;;;;;;;3.35;0.85;;;11.10;92.00;;;;;;5027909;28;20219;-53
2022/09/27 10:12:52;;;;;;;2.70;0.60;;;11.20;91.80;;;;;;5012306;28;20120;-50
2022/09/27 10:15:24;;;;;;;5.78;1.20;;;11.30;91.80;;;;;;5012239;28;20481;-51
2022/09/27 10:18:00;;;;;;;5.18;1.45;;;11.50;92.00;;;;;;5030029;28;20038;-50
2022/09/27 10:20:33;;;;;;;5.40;2.05;;;11.70;91.70;;;;;;5011115;28;20033;-53
2022/09/27 10:23:20;;;;;;;6.20;1.67;;;11.70;91.40;;;;;;5012128;28;20403;-55
2022/09/27 10:25:58;;;;;;;2.92;1.40;;;11.90;91.40;;;;;;5027735;28;20451;-54
2022/09/27 10:28:47;;;;;;;4.85;1.83;;;12.00;91.30;;;;;;5008270;28;20510;-54
2022/09/27 10:31:18;;;;;;;5.30;1.25;;;12.10;91.00;;;;;;5009804;28;20026;-54
2022/09/27 10:34:01;;;;;;;3.70;1.40;;;12.20;91.00;;;;;;5007155;28;20049;-52
2022/09/27 10:36:33;;;;;;;5.57;1.23;;;12.40;90.80;;;;;;5029130;28;20061;-53
2022/09/27 10:39:05;;;;;;;4.90;1.35;;;12.40;90.20;;;;;;5029231;28;20036;-51
2022/09/27 10:41:37;;;;;;;3.72;0.88;;;12.50;90.30;;;;;;4995588;28;20037;-50
2022/09/27 10:44:21;;;;;;;5.05;1.35;;;12.80;89.80;;;;;;5011982;28;20049;-51
2022/09/27 10:46:52;;;;;;;3.65;0.75;;;12.90;89.90;;;;;;5029134;28;20044;-53
2022/09/27 10:49:24;;;;;;;6.95;1.13;;;13.10;89.50;;;;;;5011235;28;20498;-53
2022/09/27 10:51:53;;;;;;;3.78;1.15;;;13.30;89.30;;;;;;5028058;28;20480;-52
2022/09/27 10:54:35;;;;;;;2.90;1.27;;;13.40;89.00;;;;;;5028807;28;20022;-51
2022/09/27 10:57:03;;;;;;;6.35;0.93;;;13.40;88.40;;;;;;5010923;28;20099;-47
2022/09/27 10:59:39;;;;;;;3.65;1.20;;;13.20;88.30;;;;;;5029292;28;20025;-47
2022/09/27 11:02:22;;;;;;;4.63;1.00;;;12.80;87.70;;;;;;5029105;28;20014;-62
2022/09/27 11:05:12;;;;;;;4.78;0.75;;;12.30;86.70;;;;;;5012071;28;20037;-64
2022/09/27 11:08:01;;;;;;;4.63;1.00;;;11.80;87.40;;;;;;5029388;28;20025;-65
2022/09/27 11:10:31;;;;;;;;;;;11.50;87.60;;;;;;5029472;28;20134;-60
2022/09/27 11:13:16;;;;;;;3.65;0.68;;;11.40;88.00;;;;;;5026671;28;19905;-62
2022/09/27 11:16:21;;;;;;;4.85;0.95;;;11.20;88.60;;;;;;5011398;28;20501;-61
2022/09/27 11:19:23;;;;;;;2.95;0.70;;;11.40;89.30;;;;;;5011768;28;20119;-62
2022/09/27 11:22:15;;;;;;;2.65;0.65;;;11.50;89.40;;;;;;5028318;28;20398;-56
2022/09/27 11:25:00;;;;;;;4.40;1.65;;;11.60;89.30;;;;;;5010595;28;20037;-54
2022/09/27 11:27:59;;;;;;;4.50;0.90;;;11.60;89.30;;;;;;5008933;28;20030;-53
2022/09/27 11:30:37;;;;;;;4.40;1.27;;;11.70;89.50;;;;;;5028657;28;20132;-51
2022/09/27 11:33:06;;;;;;;3.83;0.70;;;11.70;89.80;;;;;;5028818;28;20065;-51
2022/09/27 11:36:02;;;;;;;6.85;1.02;;;11.80;89.80;;;;;;5028260;28;20079;-50
2022/09/27 11:38:43;;;;;;;4.57;1.10;;;11.90;89.70;;;;;;5028797;28;20025;-51
2022/09/27 11:41:46;;;;;;;4.07;1.08;;;12.00;89.80;;;;;;5028508;28;20033;-52
2022/09/27 11:44:48;;;;;;;8.60;2.05;;;12.00;89.40;;;;;;5008815;28;20440;-53
2022/09/27 11:47:52;;;;;;;3.15;1.02;;;12.10;89.20;;;;;;4995705;28;20045;-56
2022/09/27 11:50:36;;;;;;;4.13;0.88;;;12.10;88.90;;;;;;4995617;28;20034;-51
2022/09/27 11:53:14;;;;;;;3.40;0.70;;;12.00;89.10;;;;;;5023847;28;20431;-54
2022/09/27 11:55:51;;;;;;;3.25;0.55;;;11.90;88.70;;;;;;5032173;28;20056;-53
2022/09/27 11:58:35;;;;;;;3.83;0.98;;;11.90;89.30;;;;;;5013908;28;20106;-54
2022/09/27 12:01:22;;;;;;;4.70;0.77;;;12.20;90.00;;;;;;5014711;28;20385;-54
2022/09/27 12:04:26;;;;;;;4.40;1.13;;;12.40;90.20;;;;;;5031219;28;20029;-48
2022/09/27 12:07:14;;;;;;;5.82;1.42;;;12.40;89.60;;;;;;5032019;28;20025;-50
2022/09/27 12:09:52;;;;;;;4.40;0.98;;;12.30;88.90;;;;;;5032039;28;20022;-53
2022/09/27 12:12:29;;;;;;;8.10;1.17;;;12.40;89.20;;;;;;5029450;28;20100;-47
2022/09/27 12:15:05;;;;;;;3.35;1.00;;;12.50;88.90;;;;;;5019448;28;20033;-54
2022/09/27 12:17:43;;;;;;;5.80;0.90;;;12.60;88.60;;;;;;5032149;28;20030;-56
2022/09/27 12:20:32;;;;;;;6.05;1.33;;;12.70;89.30;;;;;;5032106;28;20358;-56
2022/09/27 12:23:14;;;;;;;2.13;0.50;;;12.70;89.30;;;;;;5031192;28;20044;-59
2022/09/27 12:25:42;;;;;;;2.40;0.40;;;12.40;87.80;;;;;;5014034;28;20477;-63
2022/09/27 12:28:18;;;;;;;2.80;0.93;;;11.90;87.70;;;;;;5022839;28;20105;-63
2022/09/27 12:30:54;;;;;;;3.42;0.70;;;11.70;87.50;;;;;;5014067;28;20112;-63
2022/09/27 12:33:38;;;;;;;0.20;0.20;;;11.50;88.40;;;;;;5031880;28;20030;-62
2022/09/27 12:36:16;;;;;;;1.73;0.47;;;11.40;89.10;;;;;;5012772;28;20033;-63
2022/09/27 12:39:13;;;;;;;2.05;0.50;;;11.30;89.90;;;;;;5014014;28;20148;-63
2022/09/27 12:41:46;;;;;;;2.65;0.52;;;11.30;90.40;;;;;;5031266;28;20068;-62
2022/09/27 12:44:13;;;;;;;1.27;0.63;;;11.40;90.90;;;;;;5029623;28;20056;-62
2022/09/27 12:46:47;;;;;;;3.53;0.80;;;11.40;90.40;;;;;;5031426;28;20385;-64
2022/09/27 12:49:50;;;;;;;4.38;0.90;;;11.40;90.70;;;;;;5031087;28;20049;-64
2022/09/27 12:52:24;;;;;;;2.78;0.85;;;11.50;90.60;;;;;;5031461;28;20378;-63
2022/09/27 12:55:11;;;;;;;3.17;0.80;;;11.50;90.40;;;;;;5030489;28;20539;-64
2022/09/27 12:57:59;;;;;;;2.97;0.85;;;11.50;90.40;;;;;;5030347;28;20033;-63
2022/09/27 13:00:37;;;;;;;5.10;0.70;;;11.50;90.60;;;;;;5028968;28;20033;-59
2022/09/27 13:03:39;;;;;;;1.88;0.68;;;11.60;90.80;;;;;;5013490;28;20029;-63
2022/09/27 13:06:30;;;;;;;2.70;0.68;;;11.60;90.60;;;;;;5013416;28;20021;-63
2022/09/27 13:09:21;;;;;;;3.30;0.50;;;11.50;90.10;;;;;;5030288;28;20335;-61
2022/09/27 13:12:02;;;;;;;2.10;0.65;;;11.40;90.40;;;;;;5030719;28;20049;-57
2022/09/27 13:14:34;;;;;;;1.90;0.70;;;11.50;90.70;;;;;;5028662;28;20107;-57
2022/09/27 13:17:01;;;;;;;3.88;0.90;;;11.40;90.60;;;;;;5011218;28;20031;-56
2022/09/27 13:19:35;;;;;;;4.32;0.70;;;11.40;90.60;;;;;;5010856;28;20022;-53
2022/09/27 13:22:26;;;;;;;2.60;0.65;;;11.10;89.50;;;;;;5008176;28;20336;-50
2022/09/27 13:24:54;;;;;;;1.25;0.65;;;10.50;88.60;;;;;;5000129;28;20041;-57
2022/09/27 13:27:28;;;;;;;2.28;0.75;;;10.30;89.90;;;;;;5010767;28;20025;-57
2022/09/27 13:30:11;;;;;;;4.82;1.50;;;10.30;91.10;;;;;;5023899;28;20438;-53
2022/09/27 13:32:39;;;;;;;3.70;1.10;;;10.20;91.70;;;;;;5030573;28;20110;-56
2022/09/27 13:35:24;;;;;;;3.85;1.25;;;10.30;92.30;;;;;;5030344;28;20036;-52